sensor_id;sensor_type;location;lat;lon;timestamp;temperature;humidity
22491;DHT22;11412;50.802;4.350;2024-02-21T00:00:45;10.70;99.90
22491;DHT22;11412;50.802;4.350;2024-02-21T00:03:11;10.60;99.90
22491;DHT22;11412;50.802;4.350;2024-02-21T00:05:37;10.50;99.90
22491;DHT22;11412;50.802;4.350;2024-02-21T00:08:02;10.40;99.90
22491;DHT22;11412;50.802;4.350;2024-02-21T00:10:31;10.50;99.90
22491;DHT22;11412;50.802;4.350;2024-02-21T00:13:01;10.50;99.90
22491;DHT22;11412;50.802;4.350;2024-02-21T00:15:27;10.50;99.90
22491;DHT22;11412;50.802;4.350;2024-02-21T00:17:53;10.60;99.90
22491;DHT22;11412;50.802;4.350;2024-02-21T00:20:18;10.80;99.90
22491;DHT22;11412;50.802;4.350;2024-02-21T00:22:45;10.80;99.90
22491;DHT22;11412;50.802;4.350;2024-02-21T00:25:11;10.70;99.90
22491;DHT22;11412;50.802;4.350;2024-02-21T00:27:37;10.50;99.90
22491;DHT22;11412;50.802;4.350;2024-02-21T00:30:03;10.60;99.90
22491;DHT22;11412;50.802;4.350;2024-02-21T00:32:29;10.60;99.90
22491;DHT22;11412;50.802;4.350;2024-02-21T00:34:54;10.80;99.90
22491;DHT22;11412;50.802;4.350;2024-02-21T00:37:20;10.80;99.90
22491;DHT22;11412;50.802;4.350;2024-02-21T00:39:46;10.90;99.90
22491;DHT22;11412;50.802;4.350;2024-02-21T00:42:11;11.00;99.90
22491;DHT22;11412;50.802;4.350;2024-02-21T00:44:37;10.80;99.90
22491;DHT22;11412;50.802;4.350;2024-02-21T00:47:03;10.90;99.90
22491;DHT22;11412;50.802;4.350;2024-02-21T00:49:28;10.90;99.90
22491;DHT22;11412;50.802;4.350;2024-02-21T00:51:54;10.80;99.90
22491;DHT22;11412;50.802;4.350;2024-02-21T00:54:20;10.80;99.90
22491;DHT22;11412;50.802;4.350;2024-02-21T00:56:47;10.80;99.90
22491;DHT22;11412;50.802;4.350;2024-02-21T00:59:12;10.70;99.90
22491;DHT22;11412;50.802;4.350;2024-02-21T01:01:38;10.80;99.90
22491;DHT22;11412;50.802;4.350;2024-02-21T01:04:07;10.80;99.90
22491;DHT22;11412;50.802;4.350;2024-02-21T01:06:32;10.70;99.90
22491;DHT22;11412;50.802;4.350;2024-02-21T01:08:59;10.60;99.90
22491;DHT22;11412;50.802;4.350;2024-02-21T01:11:24;10.70;99.90
22491;DHT22;11412;50.802;4.350;2024-02-21T01:13:50;10.70;99.90
22491;DHT22;11412;50.802;4.350;2024-02-21T01:16:16;10.60;99.90
22491;DHT22;11412;50.802;4.350;2024-02-21T01:18:41;10.40;99.90
22491;DHT22;11412;50.802;4.350;2024-02-21T01:21:08;10.70;99.90
22491;DHT22;11412;50.802;4.350;2024-02-21T01:23:35;10.80;99.90
22491;DHT22;11412;50.802;4.350;2024-02-21T01:26:02;10.80;99.90
22491;DHT22;11412;50.802;4.350;2024-02-21T01:28:27;10.80;99.90
22491;DHT22;11412;50.802;4.350;2024-02-21T01:30:53;10.80;99.90
22491;DHT22;11412;50.802;4.350;2024-02-21T01:33:19;10.60;99.90
22491;DHT22;11412;50.802;4.350;2024-02-21T01:35:44;10.50;99.90
22491;DHT22;11412;50.802;4.350;2024-02-21T01:38:12;10.60;99.90
22491;DHT22;11412;50.802;4.350;2024-02-21T01:40:38;10.70;99.90
22491;DHT22;11412;50.802;4.350;2024-02-21T01:43:03;10.70;99.90
22491;DHT22;11412;50.802;4.350;2024-02-21T01:45:29;10.70;99.90
22491;DHT22;11412;50.802;4.350;2024-02-21T01:47:55;10.70;99.90
22491;DHT22;11412;50.802;4.350;2024-02-21T01:50:22;10.50;99.90
22491;DHT22;11412;50.802;4.350;2024-02-21T01:52:49;10.40;99.90
22491;DHT22;11412;50.802;4.350;2024-02-21T01:55:16;10.60;99.90
22491;DHT22;11412;50.802;4.350;2024-02-21T01:57:42;10.60;99.90
22491;DHT22;11412;50.802;4.350;2024-02-21T02:00:13;10.60;99.90
22491;DHT22;11412;50.802;4.350;2024-02-21T02:02:40;10.60;99.90
22491;DHT22;11412;50.802;4.350;2024-02-21T02:05:08;10.60;99.90
22491;DHT22;11412;50.802;4.350;2024-02-21T02:07:33;10.60;99.90
22491;DHT22;11412;50.802;4.350;2024-02-21T02:09:59;10.40;99.90
22491;DHT22;11412;50.802;4.350;2024-02-21T02:12:25;10.20;99.90
22491;DHT22;11412;50.802;4.350;2024-02-21T02:15:01;10.30;99.90
22491;DHT22;11412;50.802;4.350;2024-02-21T02:17:30;10.50;99.90
22491;DHT22;11412;50.802;4.350;2024-02-21T02:19:55;10.50;99.90
22491;DHT22;11412;50.802;4.350;2024-02-21T02:22:23;10.30;99.90
22491;DHT22;11412;50.802;4.350;2024-02-21T02:24:51;10.30;99.90
22491;DHT22;11412;50.802;4.350;2024-02-21T02:27:17;10.30;99.90
22491;DHT22;11412;50.802;4.350;2024-02-21T02:29:43;10.30;99.90
22491;DHT22;11412;50.802;4.350;2024-02-21T02:32:08;10.30;99.90
22491;DHT22;11412;50.802;4.350;2024-02-21T02:34:34;10.40;99.90
22491;DHT22;11412;50.802;4.350;2024-02-21T02:37:00;10.50;99.90
22491;DHT22;11412;50.802;4.350;2024-02-21T02:39:25;10.50;99.90
22491;DHT22;11412;50.802;4.350;2024-02-21T02:41:51;10.40;99.90
22491;DHT22;11412;50.802;4.350;2024-02-21T02:44:17;10.50;99.90
22491;DHT22;11412;50.802;4.350;2024-02-21T02:46:42;10.40;99.90
22491;DHT22;11412;50.802;4.350;2024-02-21T02:49:08;10.40;99.90
22491;DHT22;11412;50.802;4.350;2024-02-21T02:51:34;10.40;99.90
22491;DHT22;11412;50.802;4.350;2024-02-21T02:54:00;10.30;99.90
22491;DHT22;11412;50.802;4.350;2024-02-21T02:56:25;10.30;99.90
22491;DHT22;11412;50.802;4.350;2024-02-21T02:58:51;10.40;99.90
22491;DHT22;11412;50.802;4.350;2024-02-21T03:01:16;10.50;99.90
22491;DHT22;11412;50.802;4.350;2024-02-21T03:03:42;10.50;99.90
22491;DHT22;11412;50.802;4.350;2024-02-21T03:06:08;10.60;99.90
22491;DHT22;11412;50.802;4.350;2024-02-21T03:08:33;10.50;99.90
22491;DHT22;11412;50.802;4.350;2024-02-21T03:10:59;10.60;99.90
22491;DHT22;11412;50.802;4.350;2024-02-21T03:13:26;10.70;99.90
22491;DHT22;11412;50.802;4.350;2024-02-21T03:15:51;10.60;99.90
22491;DHT22;11412;50.802;4.350;2024-02-21T03:18:17;10.70;99.90
22491;DHT22;11412;50.802;4.350;2024-02-21T03:20:43;10.70;99.90
22491;DHT22;11412;50.802;4.350;2024-02-21T03:23:08;10.50;99.90
22491;DHT22;11412;50.802;4.350;2024-02-21T03:25:34;10.50;99.90
22491;DHT22;11412;50.802;4.350;2024-02-21T03:27:59;10.50;99.90
22491;DHT22;11412;50.802;4.350;2024-02-21T03:30:25;10.40;99.90
22491;DHT22;11412;50.802;4.350;2024-02-21T03:32:51;10.20;99.90
22491;DHT22;11412;50.802;4.350;2024-02-21T03:35:16;10.20;99.90
22491;DHT22;11412;50.802;4.350;2024-02-21T03:37:44;10.20;99.90
22491;DHT22;11412;50.802;4.350;2024-02-21T03:40:10;10.40;99.90
22491;DHT22;11412;50.802;4.350;2024-02-21T03:42:36;10.60;99.90
22491;DHT22;11412;50.802;4.350;2024-02-21T03:45:02;10.60;99.90
22491;DHT22;11412;50.802;4.350;2024-02-21T03:47:29;10.50;99.90
22491;DHT22;11412;50.802;4.350;2024-02-21T03:49:54;10.60;99.90
22491;DHT22;11412;50.802;4.350;2024-02-21T03:52:20;10.60;99.90
22491;DHT22;11412;50.802;4.350;2024-02-21T03:54:46;10.80;99.90
22491;DHT22;11412;50.802;4.350;2024-02-21T03:57:11;10.60;99.90
22491;DHT22;11412;50.802;4.350;2024-02-21T03:59:37;10.70;99.90
22491;DHT22;11412;50.802;4.350;2024-02-21T04:02:05;10.70;99.90
22491;DHT22;11412;50.802;4.350;2024-02-21T04:04:34;10.70;99.90
22491;DHT22;11412;50.802;4.350;2024-02-21T04:07:02;10.80;99.90
22491;DHT22;11412;50.802;4.350;2024-02-21T04:09:32;10.80;99.90
22491;DHT22;11412;50.802;4.350;2024-02-21T04:11:59;10.60;99.90
22491;DHT22;11412;50.802;4.350;2024-02-21T04:14:25;10.30;99.90
22491;DHT22;11412;50.802;4.350;2024-02-21T04:16:51;10.30;99.90
22491;DHT22;11412;50.802;4.350;2024-02-21T04:19:16;10.30;99.90
22491;DHT22;11412;50.802;4.350;2024-02-21T04:21:42;10.50;99.90
22491;DHT22;11412;50.802;4.350;2024-02-21T04:24:07;10.30;99.90
22491;DHT22;11412;50.802;4.350;2024-02-21T04:26:34;10.40;99.90
22491;DHT22;11412;50.802;4.350;2024-02-21T04:28:59;10.50;99.90
22491;DHT22;11412;50.802;4.350;2024-02-21T04:31:25;10.50;99.90
22491;DHT22;11412;50.802;4.350;2024-02-21T04:33:51;10.40;99.90
22491;DHT22;11412;50.802;4.350;2024-02-21T04:36:17;10.30;99.90
22491;DHT22;11412;50.802;4.350;2024-02-21T04:38:42;10.40;99.90
22491;DHT22;11412;50.802;4.350;2024-02-21T04:41:08;10.30;99.90
22491;DHT22;11412;50.802;4.350;2024-02-21T04:43:34;10.40;99.90
22491;DHT22;11412;50.802;4.350;2024-02-21T04:45:59;10.60;99.90
22491;DHT22;11412;50.802;4.350;2024-02-21T04:48:26;10.60;99.90
22491;DHT22;11412;50.802;4.350;2024-02-21T04:50:51;10.60;99.90
22491;DHT22;11412;50.802;4.350;2024-02-21T04:53:17;10.60;99.90
22491;DHT22;11412;50.802;4.350;2024-02-21T04:55:43;10.40;99.90
22491;DHT22;11412;50.802;4.350;2024-02-21T04:58:08;10.40;99.90
22491;DHT22;11412;50.802;4.350;2024-02-21T05:00:34;10.50;99.90
22491;DHT22;11412;50.802;4.350;2024-02-21T05:03:00;10.50;99.90
22491;DHT22;11412;50.802;4.350;2024-02-21T05:05:25;10.50;99.90
22491;DHT22;11412;50.802;4.350;2024-02-21T05:07:51;10.40;99.90
22491;DHT22;11412;50.802;4.350;2024-02-21T05:10:17;10.30;99.90
22491;DHT22;11412;50.802;4.350;2024-02-21T05:12:43;10.10;99.90
22491;DHT22;11412;50.802;4.350;2024-02-21T05:15:09;10.20;99.90
22491;DHT22;11412;50.802;4.350;2024-02-21T05:17:35;10.40;99.90
22491;DHT22;11412;50.802;4.350;2024-02-21T05:20:01;10.50;99.90
22491;DHT22;11412;50.802;4.350;2024-02-21T05:22:26;10.50;99.90
22491;DHT22;11412;50.802;4.350;2024-02-21T05:24:52;10.50;99.90
22491;DHT22;11412;50.802;4.350;2024-02-21T05:27:18;10.40;99.90
22491;DHT22;11412;50.802;4.350;2024-02-21T05:29:43;10.30;99.90
22491;DHT22;11412;50.802;4.350;2024-02-21T05:32:09;10.40;99.90
22491;DHT22;11412;50.802;4.350;2024-02-21T05:34:35;10.40;99.90
22491;DHT22;11412;50.802;4.350;2024-02-21T05:37:01;10.30;99.90
22491;DHT22;11412;50.802;4.350;2024-02-21T05:39:27;10.20;99.90
22491;DHT22;11412;50.802;4.350;2024-02-21T05:41:54;10.30;99.90
22491;DHT22;11412;50.802;4.350;2024-02-21T05:44:20;10.30;99.90
22491;DHT22;11412;50.802;4.350;2024-02-21T05:46:47;10.40;99.90
22491;DHT22;11412;50.802;4.350;2024-02-21T05:49:13;10.40;99.90
22491;DHT22;11412;50.802;4.350;2024-02-21T05:51:40;10.40;99.90
22491;DHT22;11412;50.802;4.350;2024-02-21T05:54:05;10.50;99.90
22491;DHT22;11412;50.802;4.350;2024-02-21T05:56:32;10.40;99.90
22491;DHT22;11412;50.802;4.350;2024-02-21T05:58:58;10.40;99.90
22491;DHT22;11412;50.802;4.350;2024-02-21T06:01:24;10.50;99.90
22491;DHT22;11412;50.802;4.350;2024-02-21T06:03:50;10.60;99.90
22491;DHT22;11412;50.802;4.350;2024-02-21T06:06:15;10.50;99.90
22491;DHT22;11412;50.802;4.350;2024-02-21T06:08:41;10.60;99.90
22491;DHT22;11412;50.802;4.350;2024-02-21T06:11:07;10.60;99.90
22491;DHT22;11412;50.802;4.350;2024-02-21T06:13:33;10.50;99.90
22491;DHT22;11412;50.802;4.350;2024-02-21T06:15:58;10.50;99.90
22491;DHT22;11412;50.802;4.350;2024-02-21T06:18:24;10.50;99.90
22491;DHT22;11412;50.802;4.350;2024-02-21T06:20:50;10.60;99.90
22491;DHT22;11412;50.802;4.350;2024-02-21T06:23:16;10.50;99.90
22491;DHT22;11412;50.802;4.350;2024-02-21T06:25:42;10.50;99.90
22491;DHT22;11412;50.802;4.350;2024-02-21T06:28:08;10.60;99.90
22491;DHT22;11412;50.802;4.350;2024-02-21T06:30:35;10.60;99.90
22491;DHT22;11412;50.802;4.350;2024-02-21T06:33:00;10.60;99.90
22491;DHT22;11412;50.802;4.350;2024-02-21T06:35:28;10.60;99.90
22491;DHT22;11412;50.802;4.350;2024-02-21T06:37:54;10.50;99.90
22491;DHT22;11412;50.802;4.350;2024-02-21T06:40:21;10.30;99.90
22491;DHT22;11412;50.802;4.350;2024-02-21T06:42:48;10.30;99.90
22491;DHT22;11412;50.802;4.350;2024-02-21T06:45:13;10.40;99.90
22491;DHT22;11412;50.802;4.350;2024-02-21T06:47:39;10.30;99.90
22491;DHT22;11412;50.802;4.350;2024-02-21T06:50:05;10.40;99.90
22491;DHT22;11412;50.802;4.350;2024-02-21T06:52:31;10.40;99.90
22491;DHT22;11412;50.802;4.350;2024-02-21T06:54:57;10.40;99.90
22491;DHT22;11412;50.802;4.350;2024-02-21T06:57:22;10.50;99.90
22491;DHT22;11412;50.802;4.350;2024-02-21T06:59:48;10.60;99.90
22491;DHT22;11412;50.802;4.350;2024-02-21T07:02:14;10.40;99.90
22491;DHT22;11412;50.802;4.350;2024-02-21T07:04:39;10.10;99.90
22491;DHT22;11412;50.802;4.350;2024-02-21T07:07:05;10.10;99.90
22491;DHT22;11412;50.802;4.350;2024-02-21T07:09:32;10.20;99.90
22491;DHT22;11412;50.802;4.350;2024-02-21T07:11:58;10.10;99.90
22491;DHT22;11412;50.802;4.350;2024-02-21T07:14:24;10.10;99.90
22491;DHT22;11412;50.802;4.350;2024-02-21T07:16:50;10.40;99.90
22491;DHT22;11412;50.802;4.350;2024-02-21T07:19:16;10.30;99.90
22491;DHT22;11412;50.802;4.350;2024-02-21T07:21:41;10.20;99.90
22491;DHT22;11412;50.802;4.350;2024-02-21T07:24:08;10.30;99.90
22491;DHT22;11412;50.802;4.350;2024-02-21T07:26:33;10.20;99.90
22491;DHT22;11412;50.802;4.350;2024-02-21T07:28:59;10.10;99.90
22491;DHT22;11412;50.802;4.350;2024-02-21T07:31:25;10.20;99.90
22491;DHT22;11412;50.802;4.350;2024-02-21T07:33:51;10.30;99.90
22491;DHT22;11412;50.802;4.350;2024-02-21T07:36:30;10.30;99.90
22491;DHT22;11412;50.802;4.350;2024-02-21T07:38:56;10.40;99.90
22491;DHT22;11412;50.802;4.350;2024-02-21T07:41:21;10.30;99.90
22491;DHT22;11412;50.802;4.350;2024-02-21T07:43:47;10.20;99.90
22491;DHT22;11412;50.802;4.350;2024-02-21T07:46:14;10.00;99.90
22491;DHT22;11412;50.802;4.350;2024-02-21T07:48:40;10.10;99.90
22491;DHT22;11412;50.802;4.350;2024-02-21T07:51:05;10.10;99.90
22491;DHT22;11412;50.802;4.350;2024-02-21T07:53:31;10.10;99.90
22491;DHT22;11412;50.802;4.350;2024-02-21T07:55:57;10.00;99.90
22491;DHT22;11412;50.802;4.350;2024-02-21T07:58:22;10.10;99.90
22491;DHT22;11412;50.802;4.350;2024-02-21T08:00:48;10.30;99.90
22491;DHT22;11412;50.802;4.350;2024-02-21T08:03:14;10.30;99.90
22491;DHT22;11412;50.802;4.350;2024-02-21T08:05:41;10.20;99.90
22491;DHT22;11412;50.802;4.350;2024-02-21T08:08:06;10.30;99.90
22491;DHT22;11412;50.802;4.350;2024-02-21T08:10:33;10.40;99.90
22491;DHT22;11412;50.802;4.350;2024-02-21T08:12:59;10.30;99.90
22491;DHT22;11412;50.802;4.350;2024-02-21T08:15:25;10.20;99.90
22491;DHT22;11412;50.802;4.350;2024-02-21T08:17:55;10.20;99.90
22491;DHT22;11412;50.802;4.350;2024-02-21T08:20:25;10.20;99.90
22491;DHT22;11412;50.802;4.350;2024-02-21T08:22:51;10.10;99.90
22491;DHT22;11412;50.802;4.350;2024-02-21T08:25:17;10.30;99.90
22491;DHT22;11412;50.802;4.350;2024-02-21T08:27:42;10.10;99.90
22491;DHT22;11412;50.802;4.350;2024-02-21T08:30:08;10.30;99.90
22491;DHT22;11412;50.802;4.350;2024-02-21T08:32:34;10.30;99.90
22491;DHT22;11412;50.802;4.350;2024-02-21T08:35:01;10.20;99.90
22491;DHT22;11412;50.802;4.350;2024-02-21T08:37:27;10.30;99.90
22491;DHT22;11412;50.802;4.350;2024-02-21T08:39:53;10.20;99.90
22491;DHT22;11412;50.802;4.350;2024-02-21T08:42:19;10.10;99.90
22491;DHT22;11412;50.802;4.350;2024-02-21T08:44:45;10.30;99.90
22491;DHT22;11412;50.802;4.350;2024-02-21T08:47:11;10.40;99.90
22491;DHT22;11412;50.802;4.350;2024-02-21T08:49:37;10.40;99.90
22491;DHT22;11412;50.802;4.350;2024-02-21T08:52:04;10.30;99.90
22491;DHT22;11412;50.802;4.350;2024-02-21T08:54:32;10.30;99.90
22491;DHT22;11412;50.802;4.350;2024-02-21T08:57:00;10.40;99.90
22491;DHT22;11412;50.802;4.350;2024-02-21T08:59:26;10.40;99.90
22491;DHT22;11412;50.802;4.350;2024-02-21T09:01:52;10.20;99.90
22491;DHT22;11412;50.802;4.350;2024-02-21T09:04:20;9.90;99.90
22491;DHT22;11412;50.802;4.350;2024-02-21T09:06:46;10.00;99.90
22491;DHT22;11412;50.802;4.350;2024-02-21T09:09:12;10.10;99.90
22491;DHT22;11412;50.802;4.350;2024-02-21T09:11:38;10.10;99.90
22491;DHT22;11412;50.802;4.350;2024-02-21T09:14:05;10.30;99.90
22491;DHT22;11412;50.802;4.350;2024-02-21T09:16:31;10.30;99.90
22491;DHT22;11412;50.802;4.350;2024-02-21T09:18:58;10.60;99.90
22491;DHT22;11412;50.802;4.350;2024-02-21T09:21:23;10.60;99.90
22491;DHT22;11412;50.802;4.350;2024-02-21T09:23:49;10.60;99.90
22491;DHT22;11412;50.802;4.350;2024-02-21T09:26:14;10.70;99.90
22491;DHT22;11412;50.802;4.350;2024-02-21T09:28:42;10.70;99.90
22491;DHT22;11412;50.802;4.350;2024-02-21T09:31:08;10.60;99.90
22491;DHT22;11412;50.802;4.350;2024-02-21T09:33:34;10.50;99.90
22491;DHT22;11412;50.802;4.350;2024-02-21T09:36:00;10.60;99.90
22491;DHT22;11412;50.802;4.350;2024-02-21T09:38:25;10.70;99.90
22491;DHT22;11412;50.802;4.350;2024-02-21T09:41:25;10.90;99.90
22491;DHT22;11412;50.802;4.350;2024-02-21T09:43:50;10.80;99.90
22491;DHT22;11412;50.802;4.350;2024-02-21T09:46:19;10.90;99.90
22491;DHT22;11412;50.802;4.350;2024-02-21T09:48:58;11.00;99.90
22491;DHT22;11412;50.802;4.350;2024-02-21T09:51:30;10.90;99.90
22491;DHT22;11412;50.802;4.350;2024-02-21T09:53:58;10.90;99.90
22491;DHT22;11412;50.802;4.350;2024-02-21T09:56:25;11.00;99.90
22491;DHT22;11412;50.802;4.350;2024-02-21T09:58:50;11.00;99.90
22491;DHT22;11412;50.802;4.350;2024-02-21T10:01:16;11.00;99.90
22491;DHT22;11412;50.802;4.350;2024-02-21T10:03:42;11.00;99.90
22491;DHT22;11412;50.802;4.350;2024-02-21T10:06:09;11.00;99.90
22491;DHT22;11412;50.802;4.350;2024-02-21T10:08:35;11.00;99.90
22491;DHT22;11412;50.802;4.350;2024-02-21T10:11:00;11.10;99.90
22491;DHT22;11412;50.802;4.350;2024-02-21T10:13:29;11.00;99.90
22491;DHT22;11412;50.802;4.350;2024-02-21T10:16:05;11.00;99.90
22491;DHT22;11412;50.802;4.350;2024-02-21T10:18:31;11.10;99.90
22491;DHT22;11412;50.802;4.350;2024-02-21T10:21:05;11.10;99.90
22491;DHT22;11412;50.802;4.350;2024-02-21T10:23:53;11.10;99.90
22491;DHT22;11412;50.802;4.350;2024-02-21T10:26:19;11.20;99.90
22491;DHT22;11412;50.802;4.350;2024-02-21T10:28:46;11.30;99.90
22491;DHT22;11412;50.802;4.350;2024-02-21T10:31:22;11.50;99.90
22491;DHT22;11412;50.802;4.350;2024-02-21T10:33:59;11.30;99.90
22491;DHT22;11412;50.802;4.350;2024-02-21T10:36:25;11.50;99.90
22491;DHT22;11412;50.802;4.350;2024-02-21T10:38:55;11.60;99.90
22491;DHT22;11412;50.802;4.350;2024-02-21T10:41:22;11.60;99.90
22491;DHT22;11412;50.802;4.350;2024-02-21T10:43:52;11.70;99.90
22491;DHT22;11412;50.802;4.350;2024-02-21T10:46:21;11.70;99.90
22491;DHT22;11412;50.802;4.350;2024-02-21T10:48:48;11.90;99.90
22491;DHT22;11412;50.802;4.350;2024-02-21T10:51:18;11.70;99.90
22491;DHT22;11412;50.802;4.350;2024-02-21T10:56:39;11.70;99.90
22491;DHT22;11412;50.802;4.350;2024-02-21T10:59:07;11.70;99.90
22491;DHT22;11412;50.802;4.350;2024-02-21T11:01:33;11.40;99.90
22491;DHT22;11412;50.802;4.350;2024-02-21T11:04:05;11.40;99.90
22491;DHT22;11412;50.802;4.350;2024-02-21T11:06:33;11.40;99.90
22491;DHT22;11412;50.802;4.350;2024-02-21T11:09:07;11.50;99.90
22491;DHT22;11412;50.802;4.350;2024-02-21T11:14:11;11.50;99.90
22491;DHT22;11412;50.802;4.350;2024-02-21T11:16:38;11.50;99.90
22491;DHT22;11412;50.802;4.350;2024-02-21T11:19:24;11.50;99.90
22491;DHT22;11412;50.802;4.350;2024-02-21T11:21:51;11.50;99.90
22491;DHT22;11412;50.802;4.350;2024-02-21T11:24:27;11.40;99.90
22491;DHT22;11412;50.802;4.350;2024-02-21T11:26:54;11.20;99.90
22491;DHT22;11412;50.802;4.350;2024-02-21T11:29:24;11.10;99.90
22491;DHT22;11412;50.802;4.350;2024-02-21T11:31:51;11.10;99.90
22491;DHT22;11412;50.802;4.350;2024-02-21T11:34:18;11.20;99.90
22491;DHT22;11412;50.802;4.350;2024-02-21T11:39:21;11.10;99.90
22491;DHT22;11412;50.802;4.350;2024-02-21T11:42:03;11.20;99.90
22491;DHT22;11412;50.802;4.350;2024-02-21T11:44:30;11.20;99.90
22491;DHT22;11412;50.802;4.350;2024-02-21T11:46:56;11.00;99.90
22491;DHT22;11412;50.802;4.350;2024-02-21T11:49:21;11.20;99.90
22491;DHT22;11412;50.802;4.350;2024-02-21T11:51:47;11.20;99.90
22491;DHT22;11412;50.802;4.350;2024-02-21T11:54:14;11.20;99.90
22491;DHT22;11412;50.802;4.350;2024-02-21T11:56:42;11.20;99.90
22491;DHT22;11412;50.802;4.350;2024-02-21T11:59:08;11.10;99.90
22491;DHT22;11412;50.802;4.350;2024-02-21T12:01:34;11.20;99.90
22491;DHT22;11412;50.802;4.350;2024-02-21T12:04:00;11.20;99.90
22491;DHT22;11412;50.802;4.350;2024-02-21T12:06:25;11.20;99.90
22491;DHT22;11412;50.802;4.350;2024-02-21T12:08:51;11.10;99.90
22491;DHT22;11412;50.802;4.350;2024-02-21T12:11:22;11.20;99.90
22491;DHT22;11412;50.802;4.350;2024-02-21T12:14:08;11.10;99.90
22491;DHT22;11412;50.802;4.350;2024-02-21T12:16:35;11.00;99.90
22491;DHT22;11412;50.802;4.350;2024-02-21T12:19:04;11.00;99.90
22491;DHT22;11412;50.802;4.350;2024-02-21T12:21:31;11.10;99.90
22491;DHT22;11412;50.802;4.350;2024-02-21T12:23:59;11.20;99.90
22491;DHT22;11412;50.802;4.350;2024-02-21T12:26:25;11.20;99.90
22491;DHT22;11412;50.802;4.350;2024-02-21T12:28:51;11.10;99.90
22491;DHT22;11412;50.802;4.350;2024-02-21T12:31:16;11.10;99.90
22491;DHT22;11412;50.802;4.350;2024-02-21T12:33:43;11.20;99.90
22491;DHT22;11412;50.802;4.350;2024-02-21T12:36:09;11.10;99.90
22491;DHT22;11412;50.802;4.350;2024-02-21T12:38:35;11.10;99.90
22491;DHT22;11412;50.802;4.350;2024-02-21T12:41:01;11.20;99.90
22491;DHT22;11412;50.802;4.350;2024-02-21T12:43:27;11.30;99.90
22491;DHT22;11412;50.802;4.350;2024-02-21T12:45:53;11.40;99.90
22491;DHT22;11412;50.802;4.350;2024-02-21T12:48:19;11.50;99.90
22491;DHT22;11412;50.802;4.350;2024-02-21T12:50:51;11.30;99.90
22491;DHT22;11412;50.802;4.350;2024-02-21T12:53:18;11.30;99.90
22491;DHT22;11412;50.802;4.350;2024-02-21T12:55:47;11.40;99.90
22491;DHT22;11412;50.802;4.350;2024-02-21T12:58:14;11.50;99.90
22491;DHT22;11412;50.802;4.350;2024-02-21T13:00:40;11.40;99.90
22491;DHT22;11412;50.802;4.350;2024-02-21T13:03:06;11.40;99.90
22491;DHT22;11412;50.802;4.350;2024-02-21T13:05:32;11.50;99.90
22491;DHT22;11412;50.802;4.350;2024-02-21T13:07:58;11.40;99.90
22491;DHT22;11412;50.802;4.350;2024-02-21T13:10:25;11.50;99.90
22491;DHT22;11412;50.802;4.350;2024-02-21T13:12:51;11.50;99.90
22491;DHT22;11412;50.802;4.350;2024-02-21T13:15:16;11.60;99.90
22491;DHT22;11412;50.802;4.350;2024-02-21T13:17:44;11.60;99.90
22491;DHT22;11412;50.802;4.350;2024-02-21T13:20:10;11.70;99.90
22491;DHT22;11412;50.802;4.350;2024-02-21T13:22:37;11.70;99.90
22491;DHT22;11412;50.802;4.350;2024-02-21T13:25:03;11.60;99.90
22491;DHT22;11412;50.802;4.350;2024-02-21T13:27:30;11.60;99.90
22491;DHT22;11412;50.802;4.350;2024-02-21T13:29:56;11.70;99.90
22491;DHT22;11412;50.802;4.350;2024-02-21T13:32:22;11.80;99.90
22491;DHT22;11412;50.802;4.350;2024-02-21T13:34:48;11.70;99.90
22491;DHT22;11412;50.802;4.350;2024-02-21T13:37:14;11.30;99.90
22491;DHT22;11412;50.802;4.350;2024-02-21T13:39:40;11.40;99.90
22491;DHT22;11412;50.802;4.350;2024-02-21T13:42:06;11.60;99.90
22491;DHT22;11412;50.802;4.350;2024-02-21T13:44:32;11.60;99.90
22491;DHT22;11412;50.802;4.350;2024-02-21T13:46:58;11.50;99.90
22491;DHT22;11412;50.802;4.350;2024-02-21T13:49:23;11.20;99.90
22491;DHT22;11412;50.802;4.350;2024-02-21T13:51:49;11.30;99.90
22491;DHT22;11412;50.802;4.350;2024-02-21T13:54:15;11.30;99.90
22491;DHT22;11412;50.802;4.350;2024-02-21T13:56:45;11.20;99.90
22491;DHT22;11412;50.802;4.350;2024-02-21T13:59:12;11.10;99.90
22491;DHT22;11412;50.802;4.350;2024-02-21T14:01:39;11.10;99.90
22491;DHT22;11412;50.802;4.350;2024-02-21T14:04:04;11.20;99.90
22491;DHT22;11412;50.802;4.350;2024-02-21T14:06:30;11.10;99.90
22491;DHT22;11412;50.802;4.350;2024-02-21T14:08:56;11.20;99.90
22491;DHT22;11412;50.802;4.350;2024-02-21T14:11:21;11.20;99.90
22491;DHT22;11412;50.802;4.350;2024-02-21T14:13:47;11.10;99.90
22491;DHT22;11412;50.802;4.350;2024-02-21T14:16:13;11.10;99.90
22491;DHT22;11412;50.802;4.350;2024-02-21T14:18:42;11.10;99.90
22491;DHT22;11412;50.802;4.350;2024-02-21T14:21:08;10.90;99.90
22491;DHT22;11412;50.802;4.350;2024-02-21T14:23:37;11.00;99.90
22491;DHT22;11412;50.802;4.350;2024-02-21T14:26:06;10.80;99.90
22491;DHT22;11412;50.802;4.350;2024-02-21T14:28:34;10.90;99.90
22491;DHT22;11412;50.802;4.350;2024-02-21T14:31:00;10.90;99.90
22491;DHT22;11412;50.802;4.350;2024-02-21T14:33:27;10.90;99.90
22491;DHT22;11412;50.802;4.350;2024-02-21T14:35:52;10.90;99.90
22491;DHT22;11412;50.802;4.350;2024-02-21T14:38:19;10.80;99.90
22491;DHT22;11412;50.802;4.350;2024-02-21T14:40:45;10.80;99.90
22491;DHT22;11412;50.802;4.350;2024-02-21T14:43:11;10.90;99.90
22491;DHT22;11412;50.802;4.350;2024-02-21T14:45:36;10.60;99.90
22491;DHT22;11412;50.802;4.350;2024-02-21T14:48:04;10.70;99.90
22491;DHT22;11412;50.802;4.350;2024-02-21T14:50:30;10.70;99.90
22491;DHT22;11412;50.802;4.350;2024-02-21T14:52:55;10.50;99.90
22491;DHT22;11412;50.802;4.350;2024-02-21T14:55:21;10.70;99.90
22491;DHT22;11412;50.802;4.350;2024-02-21T14:57:47;10.60;99.90
22491;DHT22;11412;50.802;4.350;2024-02-21T15:00:13;10.50;99.90
22491;DHT22;11412;50.802;4.350;2024-02-21T15:02:39;10.60;99.90
22491;DHT22;11412;50.802;4.350;2024-02-21T15:05:05;10.60;99.90
22491;DHT22;11412;50.802;4.350;2024-02-21T15:07:31;10.60;99.90
22491;DHT22;11412;50.802;4.350;2024-02-21T15:09:57;10.60;99.90
22491;DHT22;11412;50.802;4.350;2024-02-21T15:12:23;10.40;99.90
22491;DHT22;11412;50.802;4.350;2024-02-21T15:14:49;10.50;99.90
22491;DHT22;11412;50.802;4.350;2024-02-21T15:17:15;10.50;99.90
22491;DHT22;11412;50.802;4.350;2024-02-21T15:19:41;10.50;99.90
22491;DHT22;11412;50.802;4.350;2024-02-21T15:22:10;10.40;99.90
22491;DHT22;11412;50.802;4.350;2024-02-21T15:24:40;10.50;99.90
22491;DHT22;11412;50.802;4.350;2024-02-21T15:27:06;10.40;99.90
22491;DHT22;11412;50.802;4.350;2024-02-21T15:29:32;10.40;99.90
22491;DHT22;11412;50.802;4.350;2024-02-21T15:31:58;10.50;99.90
22491;DHT22;11412;50.802;4.350;2024-02-21T15:34:23;10.50;99.90